This is the latest recevied weather packets stored in our database for station/object DH7LK-5. If no packets are shown the sender has not sent any weather packets the latest 10 day(s).
| Time | Temp. | Humidity | Pressure | Rain* | Wind** | Luminosity | Snow |
|---|---|---|---|---|---|---|---|
| 1776978486 | 12.22° C | 77% | - | 0 mm | - | - | - |
| 1776976682 | 12.22° C | 76% | - | 0 mm | - | - | - |
| 1776974841 | 12.78° C | 75% | - | 0 mm | - | - | - |
| 1776973006 | 13.33° C | 74% | - | 0 mm | - | - | - |
| 1776971194 | 14.44° C | 70% | - | 0 mm | - | - | - |
| 1776969394 | 15° C | 68% | - | 0 mm | - | - | - |
| 1776967593 | 15.56° C | 66% | - | 0 mm | - | - | - |
| 1776965792 | 16.11° C | 63% | - | 0 mm | - | - | - |
| 1776963992 | 16.11° C | 62% | - | 0 mm | - | - | - |
| 1776962191 | 16.67° C | 60% | - | 0 mm | - | - | - |
| 1776960390 | 16.67° C | 60% | - | 0 mm | - | - | - |
| 1776958628 | 16.67° C | 60% | - | 0 mm | - | - | - |
| 1776956630 | 16.11° C | 60% | - | 0 mm | - | - | - |
| 1776954784 | 15.56° C | 63% | - | 0 mm | - | - | - |
| 1776952874 | 15° C | 63% | - | 0 mm | - | - | - |
| 1776951049 | 15° C | 64% | - | 0 mm | - | - | - |
| 1776948256 | 13.33° C | 67% | - | 0 mm | - | - | - |
| 1776946441 | 12.78° C | 71% | - | 0 mm | - | - | - |
| 1776943526 | 11.11° C | 76% | - | 0 mm | - | - | - |
| 1776941643 | 10.56° C | 77% | - | 0 mm | - | - | - |
| 1776939757 | 8.89° C | 82% | - | 0 mm | - | - | - |
| 1776937944 | 7.78° C | 85% | - | 0 mm | - | - | - |
| 1776936114 | 7.22° C | 87% | - | 0 mm | - | - | - |
| 1776934300 | 7.22° C | 87% | - | 0 mm | - | - | - |
| 1776932478 | 7.78° C | 86% | - | 0 mm | - | - | - |
* Rain since midnight (hover to see other rain measurements)
** Current wind speed in m/s (hover to see current wind gust speed)